Time;durP1;ratioP1;P1;durP2;ratioP2;P2;SDS_P1;SDS_P2;PMS_P1;PMS_P2;Temp;Humidity;BMP_temperature;BMP_pressure;BME280_temperature;BME280_humidity;BME280_pressure;Samples;Min_cycle;Max_cycle;Signal;HPM_P1;HPM_P2
2023/05/19 00:01:53;;;;;;;;;15.25;13.25;;;;;14.98;45.31;101678.19;5031841;28;45758;-78
2023/05/19 00:04:41;;;;;;;;;14.50;13.50;;;;;14.75;45.34;101630.66;5042945;28;45669;-79
2023/05/19 00:13:24;;;;;;;;;12.25;11.25;;;;;14.83;46.18;101668.75;5053975;28;45603;-77
2023/05/19 00:16:08;;;;;;;;;;;;;;;;;;;;;
2023/05/19 00:18:34;;;;;;;;;12.75;12.00;;;;;14.75;47.01;101670.25;5052517;28;75806;-77
2023/05/19 00:20:59;;;;;;;;;13.50;13.25;;;;;14.66;47.18;101663.84;5053577;28;45860;-77
2023/05/19 00:23:25;;;;;;;;;13.50;12.50;;;;;14.64;47.01;101673.66;5053523;28;45661;-79
2023/05/19 00:29:36;;;;;;;;;;;;;;;;;;;;;
2023/05/19 00:32:15;;;;;;;;;12.75;11.50;;;;;14.48;47.89;101679.16;5051951;28;71904;-79
2023/05/19 00:34:52;;;;;;;;;8.50;8.00;;;;;14.46;48.42;101667.91;5053504;28;45902;-79
2023/05/19 00:37:38;;;;;;;;;15.00;13.00;;;;;14.00;48.23;101598.22;5053432;28;45702;-79
2023/05/19 00:46:33;;;;;;;;;18.25;14.50;;;;;14.30;48.75;101664.63;5050643;28;45721;-79
2023/05/19 00:48:58;;;;;;;;;16.50;14.00;;;;;14.23;49.04;101660.72;5051641;28;45622;-79
2023/05/19 00:51:26;;;;;;;;;14.25;12.50;;;;;14.26;49.01;101660.47;5051916;28;46362;-77
2023/05/19 00:53:51;;;;;;;;;16.50;13.50;;;;;14.25;49.23;101656.19;5063138;28;46075;-79
2023/05/19 00:56:18;;;;;;;;;15.75;14.00;;;;;14.25;49.23;101653.56;5067599;28;45618;-78
2023/05/19 00:58:44;;;;;;;;;15.50;11.25;;;;;14.25;49.32;101657.00;5067365;28;45660;-78
2023/05/19 01:01:15;;;;;;;;;10.00;10.00;;;;;14.26;49.29;101655.22;5053125;28;46583;-79
2023/05/19 01:07:25;;;;;;;;;;;;;;;;;;;;;
2023/05/19 01:09:55;;;;;;;;;17.00;14.75;;;;;13.50;49.78;101534.06;4990317;28;76457;-79
2023/05/19 01:12:24;;;;;;;;;14.75;14.00;;;;;14.08;49.89;101643.31;4990678;28;46120;-79
2023/05/19 01:14:52;;;;;;;;;16.00;14.50;;;;;13.93;49.83;101610.13;4990631;28;46138;-78
2023/05/19 01:17:45;;;;;;;;;14.00;13.25;;;;;14.08;50.27;101652.06;4990938;28;45818;-78
2023/05/19 01:20:24;;;;;;;;;17.00;15.00;;;;;14.04;50.67;101647.09;4978057;28;45875;-76
2023/05/19 01:23:16;;;;;;;;;15.50;15.25;;;;;14.03;50.97;101651.56;4971132;28;47193;-78
2023/05/19 01:29:45;;;;;;;;;14.75;12.50;;;;;13.97;50.82;101636.16;4970681;28;45715;-78
2023/05/19 01:32:15;;;;;;;;;19.25;16.50;;;;;13.87;50.83;101619.31;4970736;28;45987;-78
2023/05/19 01:34:43;;;;;;;;;17.25;15.75;;;;;13.83;51.25;101617.81;4970368;28;46109;-79
2023/05/19 01:37:12;;;;;;;;;15.50;13.00;;;;;13.60;51.44;101589.59;4970347;28;45585;-76
2023/05/19 01:40:01;;;;;;;;;;;;;;;;;;;;;
2023/05/19 01:45:59;;;;;;;;;13.75;11.00;;;;;13.65;51.62;101603.28;5009598;28;45693;-79
2023/05/19 01:48:26;;;;;;;;;20.25;16.00;;;;;13.76;51.41;101629.72;4993206;28;45773;-79
2023/05/19 01:50:51;;;;;;;;;20.50;17.25;;;;;13.72;52.13;101636.97;5010034;28;45809;-79
2023/05/19 01:53:19;;;;;;;;;15.75;15.75;;;;;13.71;52.10;101640.53;5010377;28;46365;-79
2023/05/19 02:02:33;;;;;;;;;20.50;15.00;;;;;13.49;52.46;101627.16;5052412;28;45792;-79
2023/05/19 02:05:11;;;;;;;;;16.00;15.00;;;;;13.54;52.75;101634.75;5052334;28;45799;-78
2023/05/19 02:08:01;;;;;;;;;23.50;18.75;;;;;13.37;52.65;101613.03;5052192;28;46127;-78
2023/05/19 02:10:29;;;;;;;;;15.25;15.00;;;;;13.34;52.59;101612.38;5050035;28;45740;-79
2023/05/19 02:13:03;;;;;;;;;16.50;15.75;;;;;13.47;52.67;101638.72;5050823;28;45921;-80
2023/05/19 02:18:36;;;;;;;;;21.00;17.00;;;;;13.42;53.10;101628.50;5044812;28;46271;-80
2023/05/19 02:21:02;;;;;;;;;21.75;18.25;;;;;13.11;53.07;101590.19;5069855;27;45636;-78
2023/05/19 02:23:30;;;;;;;;;18.75;17.00;;;;;12.59;52.93;101504.19;5064076;28;45832;-79
2023/05/19 02:25:56;;;;;;;;;17.75;15.75;;;;;13.31;53.42;101625.75;5067430;28;45524;-80
2023/05/19 02:28:32;;;;;;;;;16.25;14.75;;;;;12.82;53.27;101546.53;5062951;28;46249;-79
2023/05/19 02:31:00;;;;;;;;;21.25;16.25;;;;;12.73;53.30;101548.00;5054574;28;45701;-78
2023/05/19 02:33:26;;;;;;;;;18.00;15.00;;;;;13.09;53.57;101613.13;5056153;28;45689;-80
2023/05/19 02:35:52;;;;;;;;;17.00;15.25;;;;;12.50;53.39;101510.03;5053859;28;48155;-79
2023/05/19 02:38:17;;;;;;;;;22.25;17.75;;;;;13.13;53.52;101625.16;5055338;28;45713;-78
2023/05/19 02:40:43;;;;;;;;;17.75;14.75;;;;;13.17;53.77;101637.16;5055260;28;45688;-78
2023/05/19 02:43:08;;;;;;;;;10.25;7.00;;;;;13.17;54.01;101634.53;5055460;28;45627;-79
2023/05/19 02:45:34;;;;;;;;;16.75;14.75;;;;;13.18;54.07;101630.13;5055195;28;46629;-77
2023/05/19 02:47:59;;;;;;;;;20.25;17.00;;;;;13.21;53.99;101625.53;5055367;28;45878;-79
2023/05/19 02:50:24;;;;;;;;;19.75;14.75;;;;;13.21;53.66;101628.16;5054972;28;45966;-79
2023/05/19 02:52:51;;;;;;;;;11.25;11.25;;;;;12.98;53.72;101589.31;5055387;28;45567;-80
2023/05/19 02:55:16;;;;;;;;;18.50;15.50;;;;;13.14;53.80;101626.84;5055129;28;45585;-77
2023/05/19 02:57:42;;;;;;;;;17.75;16.00;;;;;13.08;54.01;101621.09;5055223;28;45699;-79
2023/05/19 03:00:08;;;;;;;;;18.50;16.00;;;;;12.89;54.05;101590.75;5054890;28;45764;-81
2023/05/19 03:02:36;;;;;;;;;13.50;10.75;;;;;12.92;54.32;101597.59;5054989;28;45685;-79
2023/05/19 03:05:02;;;;;;;;;19.25;15.00;;;;;12.89;54.30;101596.03;5054882;28;46667;-81
2023/05/19 03:07:32;;;;;;;;;23.00;17.25;;;;;13.04;54.08;101617.84;5055236;28;45935;-78
2023/05/19 03:09:57;;;;;;;;;16.50;16.00;;;;;13.02;54.27;101607.41;5054456;28;45666;-79
2023/05/19 03:12:23;;;;;;;;;20.75;18.00;;;;;13.00;54.40;101617.22;5054858;28;45852;-77
2023/05/19 03:14:50;;;;;;;;;15.00;14.00;;;;;12.93;54.74;101618.53;5054311;28;45813;-78
2023/05/19 03:17:15;;;;;;;;;16.75;16.25;;;;;12.93;54.78;101625.59;5055053;28;46035;-78
2023/05/19 03:19:40;;;;;;;;;17.00;16.00;;;;;12.80;54.89;101615.00;5054567;28;45786;-79
2023/05/19 03:22:06;;;;;;;;;20.25;17.25;;;;;12.86;54.92;101619.88;5054895;28;45545;-79
2023/05/19 03:24:31;;;;;;;;;21.00;16.00;;;;;12.85;55.01;101619.97;5070113;28;47622;-79
2023/05/19 03:26:56;;;;;;;;;19.75;16.75;;;;;12.82;54.80;101618.38;5054182;28;47086;-76
2023/05/19 03:29:22;;;;;;;;;19.75;15.00;;;;;12.82;54.83;101620.16;5069604;28;45654;-78
2023/05/19 03:31:48;;;;;;;;;20.25;15.75;;;;;12.71;54.87;101602.44;5053366;28;45806;-79
2023/05/19 03:34:14;;;;;;;;;23.00;19.75;;;;;12.80;55.19;101622.03;5070318;28;46701;-78
2023/05/19 03:36:39;;;;;;;;;20.75;17.00;;;;;12.78;55.19;101618.69;5053799;28;45780;-78
2023/05/19 03:39:06;;;;;;;;;18.50;15.25;;;;;12.68;55.40;101609.69;5054585;28;45701;-78
2023/05/19 03:41:32;;;;;;;;;15.00;14.00;;;;;12.68;55.36;101615.81;5053758;28;45705;-79
2023/05/19 03:47:19;;;;;;;;;17.75;15.75;;;;;12.58;55.40;101615.53;5054266;28;45789;-77
2023/05/19 03:49:44;;;;;;;;;20.25;15.25;;;;;12.57;55.50;101619.13;5053793;28;45773;-78
2023/05/19 03:52:11;;;;;;;;;15.75;15.25;;;;;12.52;55.44;101620.34;5054224;28;45781;-76
2023/05/19 03:54:38;;;;;;;;;20.00;17.75;;;;;12.46;55.71;101618.94;5053836;28;46354;-77
2023/05/19 03:57:04;;;;;;;;;19.50;18.25;;;;;12.47;55.88;101617.97;5053894;28;46216;-79
2023/05/19 03:59:30;;;;;;;;;22.75;17.00;;;;;12.49;55.71;101617.91;5053798;28;45974;-80
2023/05/19 04:01:57;;;;;;;;;21.75;19.50;;;;;12.43;55.65;101605.13;5069448;28;45936;-78
2023/05/19 04:04:22;;;;;;;;;19.00;18.00;;;;;12.51;55.84;101613.41;5053980;28;46608;-79
2023/05/19 04:06:47;;;;;;;;;22.75;17.00;;;;;12.52;55.92;101620.34;5053997;28;45913;-80
2023/05/19 04:09:14;;;;;;;;;20.00;18.00;;;;;12.53;55.75;101619.38;5053729;28;45912;-77
2023/05/19 04:11:41;;;;;;;;;21.50;19.75;;;;;12.43;55.48;101613.88;5053708;28;45819;-78
2023/05/19 04:17:28;;;;;;;;;20.75;16.75;;;;;12.38;56.24;101620.34;5053709;28;45738;-78
2023/05/19 04:19:54;;;;;;;;;20.25;18.00;;;;;12.21;56.12;101595.13;5053415;28;45667;-78
2023/05/19 04:22:19;;;;;;;;;20.75;19.75;;;;;12.37;56.07;101626.53;5053964;28;45946;-78
2023/05/19 04:24:45;;;;;;;;;25.00;19.50;;;;;12.34;56.06;101624.97;5054305;28;47656;-78
2023/05/19 04:27:11;;;;;;;;;18.75;17.25;;;;;12.34;56.23;101619.72;5054581;28;47071;-79
2023/05/19 04:29:37;;;;;;;;;21.00;19.75;;;;;12.36;56.18;101635.38;5053368;28;45871;-78
2023/05/19 04:32:06;;;;;;;;;22.50;20.00;;;;;12.05;56.37;101579.47;5053888;28;45571;-79
2023/05/19 04:34:33;;;;;;;;;20.00;17.50;;;;;12.30;56.29;101615.59;5053336;28;46287;-80
2023/05/19 04:36:59;;;;;;;;;17.25;14.25;;;;;12.35;56.46;101621.41;5053772;28;45800;-79
2023/05/19 04:39:25;;;;;;;;;19.50;18.50;;;;;12.37;56.25;101629.16;5053261;28;45675;-77
2023/05/19 04:41:50;;;;;;;;;15.50;14.50;;;;;12.28;56.56;101606.94;5053499;28;45644;-78
2023/05/19 04:47:38;;;;;;;;;24.50;19.25;;;;;12.22;56.27;101591.56;5053017;28;45652;-79
2023/05/19 04:50:04;;;;;;;;;20.25;16.75;;;;;12.41;56.11;101621.03;5052920;28;45903;-79
2023/05/19 04:52:29;;;;;;;;;21.50;18.50;;;;;12.43;56.39;101616.50;5053441;28;45658;-78
2023/05/19 04:54:55;;;;;;;;;20.75;19.75;;;;;12.44;56.19;101619.97;5052795;28;46474;-78
2023/05/19 05:00:40;;;;;;;;;20.50;16.25;;;;;12.40;57.27;101636.88;4992944;28;45636;-77
2023/05/19 05:06:16;;;;;;;;;20.50;19.00;;;;;11.78;57.28;101570.66;4967463;28;45600;-79
2023/05/19 05:08:41;;;;;;;;;23.50;18.50;;;;;12.04;57.44;101604.03;4992288;28;46426;-78
2023/05/19 05:11:07;;;;;;;;;20.00;17.50;;;;;12.33;57.61;101639.03;4991680;28;46155;-80
2023/05/19 05:13:48;;;;;;;;;20.75;19.00;;;;;11.99;57.69;101585.09;4991318;28;46021;-79
2023/05/19 05:16:16;;;;;;;;;29.00;20.50;;;;;12.06;57.56;101596.06;4974836;28;47229;-77
2023/05/19 05:18:42;;;;;;;;;22.75;21.50;;;;;12.38;57.80;101652.72;4990987;28;46456;-78
2023/05/19 05:21:08;;;;;;;;;24.50;20.75;;;;;12.35;57.62;101665.22;4989992;28;45770;-77
2023/05/19 05:23:33;;;;;;;;;18.75;17.75;;;;;12.19;57.65;101647.78;4990526;28;45717;-78
2023/05/19 05:26:06;;;;;;;;;25.25;20.25;;;;;12.20;57.82;101651.22;4990422;28;46583;-78
2023/05/19 05:28:32;;;;;;;;;20.50;18.25;;;;;12.24;57.94;101655.38;4972144;28;47211;-77
2023/05/19 05:30:58;;;;;;;;;28.75;20.50;;;;;12.31;57.96;101658.47;4989799;28;45865;-78
2023/05/19 05:33:26;;;;;;;;;24.75;20.25;;;;;12.27;57.64;101663.06;4990633;28;45619;-78
2023/05/19 05:35:51;;;;;;;;;32.00;22.50;;;;;12.17;58.24;101647.03;4989980;28;46456;-80
2023/05/19 05:38:18;;;;;;;;;24.00;19.75;;;;;12.29;58.10;101666.44;5050141;28;46089;-79
2023/05/19 05:40:43;;;;;;;;;23.50;20.00;;;;;12.34;57.28;101664.38;5066939;28;45744;-79
2023/05/19 05:43:15;;;;;;;;;26.00;21.25;;;;;12.38;57.62;101654.50;5052103;28;45668;-80
2023/05/19 05:45:42;;;;;;;;;22.00;18.75;;;;;12.43;57.58;101655.06;5052117;28;45686;-80
2023/05/19 05:48:08;;;;;;;;;20.50;19.75;;;;;12.41;57.12;101643.84;5052217;28;46644;-77
2023/05/19 05:50:34;;;;;;;;;30.00;23.50;;;;;12.54;57.01;101653.47;5051862;28;45584;-80
2023/05/19 05:53:00;;;;;;;;;20.50;15.00;;;;;12.55;56.96;101662.19;5052309;28;45616;-78
2023/05/19 05:55:26;;;;;;;;;27.50;22.50;;;;;12.53;57.20;101657.03;5052261;28;45598;-78
2023/05/19 05:57:51;;;;;;;;;19.75;17.00;;;;;12.55;56.81;101667.47;5052136;28;45974;-77
2023/05/19 06:00:17;;;;;;;;;23.00;20.75;;;;;12.42;56.59;101648.97;5050522;28;45845;-78
2023/05/19 06:02:49;;;;;;;;;22.50;17.50;;;;;12.60;56.35;101657.50;5052490;28;45691;-77
2023/05/19 06:05:39;;;;;;;;;;;;;;;;;;;;;
2023/05/19 06:08:18;;;;;;;;;22.50;20.50;;;;;12.40;56.42;101615.84;5054740;28;75601;-77
2023/05/19 06:10:45;;;;;;;;;20.00;18.25;;;;;12.71;55.82;101664.72;5055400;28;45638;-78
2023/05/19 06:13:10;;;;;;;;;17.25;16.00;;;;;12.57;55.91;101650.66;5055581;28;45725;-79
2023/05/19 06:15:35;;;;;;;;;21.75;20.25;;;;;12.71;55.65;101678.72;5053920;28;46440;-79
2023/05/19 06:18:06;;;;;;;;;21.00;19.00;;;;;12.70;55.50;101673.53;5055753;28;45680;-79
2023/05/19 06:20:35;;;;;;;;;20.25;17.00;;;;;12.74;55.68;101675.06;5070241;28;45906;-79
2023/05/19 06:23:01;;;;;;;;;24.25;20.50;;;;;12.66;55.69;101661.53;5056348;28;45572;-77
2023/05/19 06:25:27;;;;;;;;;19.50;17.25;;;;;12.50;55.43;101628.31;5055530;28;45733;-77
2023/05/19 06:27:52;;;;;;;;;20.75;18.25;;;;;12.67;55.25;101658.81;5055548;28;46311;-77
2023/05/19 06:33:54;;;;;;;;;22.25;16.50;;;;;12.63;55.42;101661.72;5046580;28;46462;-78
2023/05/19 06:36:19;;;;;;;;;18.25;16.25;;;;;12.66;55.41;101672.91;5054556;28;46541;-76
2023/05/19 06:38:45;;;;;;;;;19.00;16.75;;;;;12.52;55.21;101644.00;5054891;28;45535;-77
2023/05/19 06:41:15;;;;;;;;;16.75;12.25;;;;;12.63;55.48;101658.13;5054448;28;45949;-78
2023/05/19 06:43:41;;;;;;;;;27.25;22.75;;;;;12.61;55.34;101654.78;5054905;28;45751;-78
2023/05/19 06:46:07;;;;;;;;;25.00;20.00;;;;;12.68;55.14;101663.13;5054368;28;46468;-78
2023/05/19 06:48:35;;;;;;;;;20.75;16.75;;;;;12.59;55.26;101654.03;5055211;28;45828;-77
2023/05/19 06:51:08;;;;;;;;;20.00;18.00;;;;;12.61;55.28;101646.91;5054502;28;45714;-77
2023/05/19 06:53:34;;;;;;;;;22.00;19.00;;;;;12.80;55.04;101674.63;5069572;28;45633;-76
2023/05/19 06:55:59;;;;;;;;;17.25;17.00;;;;;12.84;55.24;101668.28;5054500;28;46521;-76
2023/05/19 06:58:25;;;;;;;;;23.00;19.25;;;;;12.88;54.86;101664.50;5054803;28;46901;-76
2023/05/19 07:00:50;;;;;;;;;22.00;17.00;;;;;12.92;54.88;101663.34;5054228;28;45696;-77
2023/05/19 07:03:16;;;;;;;;;21.50;19.25;;;;;12.89;55.06;101646.00;5055356;28;45954;-77
2023/05/19 07:05:42;;;;;;;;;20.00;18.50;;;;;12.86;54.65;101643.53;5070369;28;47332;-78
2023/05/19 07:08:08;;;;;;;;;19.00;18.50;;;;;13.00;54.92;101656.66;5054810;28;46164;-78
2023/05/19 07:10:33;;;;;;;;;20.00;17.00;;;;;13.04;54.58;101667.81;5054041;28;45907;-77
2023/05/19 07:13:08;;;;;;;;;17.00;16.00;;;;;13.02;54.77;101654.78;5054959;28;45621;-78
2023/05/19 07:18:56;;;;;;;;;22.50;19.50;;;;;13.11;54.67;101666.50;5054287;28;46391;-76
2023/05/19 07:21:21;;;;;;;;;26.50;21.50;;;;;13.14;54.39;101661.06;5054239;28;45876;-77
2023/05/19 07:23:47;;;;;;;;;15.25;14.50;;;;;13.18;54.38;101659.06;5053145;28;45834;-76
2023/05/19 07:26:15;;;;;;;;;20.75;16.25;;;;;13.13;54.57;101640.09;5054252;28;46486;-76
2023/05/19 07:28:42;;;;;;;;;24.50;19.50;;;;;12.99;54.09;101610.25;5053805;28;45509;-76
2023/05/19 07:31:08;;;;;;;;;17.50;16.25;;;;;13.08;54.31;101618.47;5053677;28;45828;-74
2023/05/19 07:33:36;;;;;;;;;17.50;16.50;;;;;13.38;53.81;101661.25;5054099;28;45807;-77
2023/05/19 07:36:03;;;;;;;;;22.50;18.50;;;;;13.43;54.06;101657.38;5054097;28;45744;-77
2023/05/19 07:38:43;;;;;;;;;22.75;18.50;;;;;13.50;54.00;101662.22;5054425;28;46231;-77
2023/05/19 07:41:18;;;;;;;;;20.75;17.00;;;;;13.46;53.74;101640.50;5054001;28;46177;-77
2023/05/19 07:43:44;;;;;;;;;21.00;20.75;;;;;13.57;53.85;101645.91;5054532;28;45667;-76
2023/05/19 07:46:09;;;;;;;;;24.75;18.50;;;;;13.60;53.63;101652.78;5053885;28;46156;-77
2023/05/19 07:48:36;;;;;;;;;22.75;20.00;;;;;13.69;53.61;101653.00;5054243;28;46270;-77
2023/05/19 07:51:01;;;;;;;;;25.00;18.50;;;;;13.72;53.42;101641.41;5053790;28;45722;-77
2023/05/19 07:53:26;;;;;;;;;20.75;18.00;;;;;13.83;53.81;101646.78;5054465;28;45615;-75
2023/05/19 07:55:52;;;;;;;;;21.00;18.00;;;;;13.86;53.68;101646.59;5053973;28;45809;-77
2023/05/19 07:58:18;;;;;;;;;25.75;21.25;;;;;13.93;53.39;101645.19;5053884;28;45689;-78
2023/05/19 08:04:05;;;;;;;;;19.75;17.00;;;;;14.02;53.19;101646.38;5053546;28;45696;-77
2023/05/19 08:06:46;;;;;;;;;;;;;;;;;;;;;
2023/05/19 08:09:12;;;;;;;;;20.25;17.50;;;;;14.09;52.64;101643.19;5049233;28;75041;-78
2023/05/19 08:11:37;;;;;;;;;23.00;20.50;;;;;14.10;52.94;101642.25;5053928;28;45556;-77
2023/05/19 08:14:03;;;;;;;;;21.50;19.00;;;;;14.13;52.66;101635.94;5053801;28;45594;-77
2023/05/19 08:16:28;;;;;;;;;25.75;21.50;;;;;14.21;52.74;101641.50;5053385;28;46497;-77
2023/05/19 08:18:54;;;;;;;;;19.50;18.75;;;;;14.24;52.44;101639.53;5053673;28;46362;-77
2023/05/19 08:21:22;;;;;;;;;19.50;15.00;;;;;14.30;52.53;101635.63;5053263;28;46135;-76
2023/05/19 08:23:47;;;;;;;;;18.25;17.00;;;;;14.32;52.11;101625.78;5053700;28;45923;-74
2023/05/19 08:26:13;;;;;;;;;18.75;17.25;;;;;14.32;52.17;101620.50;5053195;28;47519;-76
2023/05/19 08:28:38;;;;;;;;;24.00;19.75;;;;;14.37;51.74;101620.22;5052169;28;46869;-76
2023/05/19 08:34:27;;;;;;;;;19.00;14.75;;;;;14.33;51.58;101587.09;5045213;28;45893;-74
2023/05/19 08:36:56;;;;;;;;;20.00;18.75;;;;;14.65;51.50;101638.41;5068780;28;47497;-76
2023/05/19 08:39:25;;;;;;;;;20.00;18.50;;;;;14.70;51.42;101628.38;5052685;28;46185;-76
2023/05/19 08:41:54;;;;;;;;;22.75;18.50;;;;;14.14;51.16;101540.94;5053365;28;45987;-76
2023/05/19 08:44:22;;;;;;;;;20.25;17.75;;;;;14.43;51.40;101573.16;5051980;28;45702;-77
2023/05/19 08:46:48;;;;;;;;;21.25;17.75;;;;;14.62;51.35;101580.63;5068634;28;45679;-78
2023/05/19 08:49:21;;;;;;;;;17.00;15.00;;;;;14.87;51.30;101612.16;5052660;28;46066;-75
2023/05/19 08:52:25;;;;;;;;;21.00;15.75;;;;;14.83;51.08;101597.53;5053089;28;45559;-77
2023/05/19 08:55:14;;;;;;;;;17.00;14.00;;;;;14.87;50.94;101580.50;4990646;28;45708;-77
2023/05/19 08:57:40;;;;;;;;;15.00;15.00;;;;;14.83;51.02;101570.28;4990720;28;45617;-76
2023/05/19 09:00:11;;;;;;;;;14.00;12.00;;;;;15.09;50.84;101599.09;4989977;28;47034;-77
2023/05/19 09:02:42;;;;;;;;;19.75;15.50;;;;;15.22;50.51;101617.50;4990335;28;46104;-76
2023/05/19 09:05:08;;;;;;;;;20.25;16.25;;;;;14.53;50.93;101488.97;4990499;28;45823;-77
2023/05/19 09:07:36;;;;;;;;;19.50;16.00;;;;;15.17;50.36;101582.66;4990653;28;45806;-76
2023/05/19 09:10:02;;;;;;;;;20.50;17.25;;;;;15.26;50.21;101575.84;4989661;28;46303;-77
2023/05/19 09:12:27;;;;;;;;;15.75;14.75;;;;;15.42;49.95;101601.00;4990080;28;45686;-77
2023/05/19 09:14:53;;;;;;;;;18.50;16.00;;;;;15.35;50.27;101568.06;4990279;28;45901;-77
2023/05/19 09:17:18;;;;;;;;;18.25;15.00;;;;;15.49;49.98;101589.00;4989774;28;46850;-77
2023/05/19 09:19:46;;;;;;;;;16.25;16.00;;;;;15.50;50.13;101581.91;4989793;28;47469;-77
2023/05/19 09:22:14;;;;;;;;;15.50;14.50;;;;;15.60;50.02;101590.03;4990183;28;45980;-76
2023/05/19 09:24:53;;;;;;;;;18.00;15.75;;;;;15.63;49.75;101582.69;4990069;28;45654;-78
2023/05/19 09:27:23;;;;;;;;;20.50;17.00;;;;;15.43;49.90;101539.31;4989904;28;46593;-78
2023/05/19 09:33:44;;;;;;;;;15.00;14.25;;;;;15.82;49.27;101574.19;5051892;28;45844;-77
2023/05/19 09:36:10;;;;;;;;;12.25;12.25;;;;;15.72;49.15;101538.88;5052056;28;46050;-76
2023/05/19 09:38:37;;;;;;;;;16.50;14.75;;;;;15.92;49.32;101569.91;5051790;28;47307;-75
2023/05/19 09:41:04;;;;;;;;;15.00;14.25;;;;;15.97;49.36;101569.53;5052023;28;45558;-75
2023/05/19 09:43:32;;;;;;;;;13.25;12.00;;;;;16.05;48.82;101560.03;5052405;28;45529;-76
2023/05/19 09:49:21;;;;;;;;;15.00;13.50;;;;;16.19;48.47;101559.78;5051676;28;45969;-76
2023/05/19 09:51:56;;;;;;;;;16.75;14.75;;;;;16.16;48.38;101535.38;5051439;28;46124;-77
2023/05/19 09:54:23;;;;;;;;;15.25;13.25;;;;;16.38;48.58;101561.78;5051775;28;45935;-77
2023/05/19 09:56:59;;;;;;;;;16.25;12.25;;;;;16.43;48.40;101564.91;5050870;28;45673;-78
2023/05/19 09:59:28;;;;;;;;;14.00;13.75;;;;;16.48;48.47;101553.94;5051510;28;45959;-77
2023/05/19 10:05:19;;;;;;;;;15.75;14.25;;;;;16.63;47.98;101565.97;5051689;28;45711;-76
2023/05/19 10:07:47;;;;;;;;;15.75;14.00;;;;;16.19;47.52;101488.41;5051837;28;45902;-77
2023/05/19 10:10:18;;;;;;;;;10.75;10.75;;;;;16.22;47.31;101479.38;5051528;28;46633;-76
2023/05/19 10:12:44;;;;;;;;;13.50;11.50;;;;;16.66;47.29;101533.97;5051841;28;46194;-77
2023/05/19 10:15:14;;;;;;;;;13.00;12.25;;;;;16.83;47.19;101561.72;5051390;28;45669;-75
2023/05/19 10:17:41;;;;;;;;;12.50;12.00;;;;;16.77;46.91;101537.44;5051951;28;45619;-75
2023/05/19 10:20:09;;;;;;;;;9.00;8.25;;;;;16.62;46.42;101491.06;5051719;28;46465;-75
2023/05/19 10:22:36;;;;;;;;;11.50;9.25;;;;;16.98;45.67;101542.75;5052153;28;45803;-75
2023/05/19 10:25:03;;;;;;;;;8.00;8.00;;;;;16.94;45.53;101543.97;5052333;28;45667;-75
2023/05/19 10:27:30;;;;;;;;;13.00;8.00;;;;;16.97;44.40;101533.13;5054053;28;45678;-77
2023/05/19 10:30:02;;;;;;;;;9.50;9.00;;;;;17.08;45.01;101551.63;5052660;28;47537;-77
2023/05/19 10:32:31;;;;;;;;;11.00;9.00;;;;;17.11;44.62;101548.69;5052717;28;45955;-78
2023/05/19 10:35:07;;;;;;;;;9.00;9.00;;;;;17.20;44.35;101541.81;5052356;28;45767;-76
2023/05/19 10:37:56;;;;;;;;;11.25;11.25;;;;;17.22;44.76;101531.91;5052731;28;45670;-76
2023/05/19 10:40:28;;;;;;;;;9.00;9.00;;;;;17.26;44.83;101540.44;5052388;28;46830;-75
2023/05/19 10:43:43;;;;;;;;;10.25;9.25;;;;;17.41;44.12;101542.66;5052291;28;46082;-77
2023/05/19 10:46:08;;;;;;;;;8.25;8.25;;;;;17.48;43.98;101541.16;5052669;28;45766;-76
2023/05/19 10:48:35;;;;;;;;;9.00;8.75;;;;;17.55;43.51;101534.34;5052564;28;45643;-76
2023/05/19 10:51:02;;;;;;;;;10.00;9.25;;;;;17.59;44.17;101540.25;5050793;28;46543;-78
2023/05/19 10:53:32;;;;;;;;;8.25;8.00;;;;;17.65;43.94;101544.22;5055360;28;45693;-76
2023/05/19 10:56:03;;;;;;;;;7.50;7.00;;;;;17.71;43.25;101535.72;5055875;28;45750;-76
2023/05/19 10:58:44;;;;;;;;;15.50;10.00;;;;;17.79;43.00;101539.41;5055928;28;45682;-77
2023/05/19 11:01:17;;;;;;;;;9.00;9.00;;;;;17.85;43.31;101530.91;5055848;28;46258;-76
2023/05/19 11:03:53;;;;;;;;;11.00;9.25;;;;;17.91;42.89;101526.88;5055899;28;45883;-76
2023/05/19 11:06:37;;;;;;;;;12.00;11.00;;;;;17.94;43.36;101524.81;5055775;28;45604;-77
2023/05/19 11:09:17;;;;;;;;;9.00;8.00;;;;;18.04;43.00;101523.00;5055736;28;45796;-77
2023/05/19 11:11:45;;;;;;;;;9.25;9.25;;;;;18.16;42.57;101525.56;5071103;28;46837;-76
2023/05/19 11:14:15;;;;;;;;;10.00;10.00;;;;;18.21;42.22;101518.88;5055763;28;46038;-76
2023/05/19 11:16:41;;;;;;;;;10.25;9.00;;;;;18.22;42.14;101515.25;5055496;28;45489;-76
2023/05/19 11:19:07;;;;;;;;;8.75;8.00;;;;;18.34;41.93;101515.97;5071159;28;45690;-76
2023/05/19 11:21:51;;;;;;;;;10.75;9.50;;;;;18.34;41.96;101510.69;5055356;28;46522;-77
2023/05/19 11:24:38;;;;;;;;;10.75;9.25;;;;;18.37;42.42;101521.00;5055568;28;46157;-78
2023/05/19 11:27:39;;;;;;;;;13.25;11.25;;;;;18.38;42.15;101509.41;5055419;28;45669;-76
2023/05/19 11:30:10;;;;;;;;;10.50;9.00;;;;;18.39;42.04;101517.25;5033042;28;45938;-76
2023/05/19 11:32:38;;;;;;;;;8.00;7.00;;;;;18.33;41.06;101512.50;5016433;28;46609;-76
2023/05/19 11:35:03;;;;;;;;;10.25;8.25;;;;;18.39;41.56;101506.63;5032845;28;46398;-77
2023/05/19 11:37:31;;;;;;;;;10.25;7.50;;;;;18.36;41.03;101493.63;5033267;28;45762;-77
2023/05/19 11:40:00;;;;;;;;;11.00;10.75;;;;;18.48;41.28;101501.47;5033049;28;45598;-75
2023/05/19 11:42:25;;;;;;;;;13.25;11.00;;;;;18.50;41.35;101492.41;5033115;28;47603;-76
2023/05/19 11:44:54;;;;;;;;;12.25;11.25;;;;;18.58;41.72;101495.22;5033010;28;45622;-76
2023/05/19 11:47:20;;;;;;;;;14.25;12.25;;;;;18.60;41.29;101495.94;5032707;28;45602;-76
2023/05/19 11:49:48;;;;;;;;;10.50;10.25;;;;;18.59;40.94;101486.28;5032801;28;45572;-75
2023/05/19 11:52:16;;;;;;;;;11.25;10.00;;;;;18.58;40.63;101471.34;5033082;28;45794;-77
2023/05/19 11:54:47;;;;;;;;;11.25;10.25;;;;;18.70;40.56;101493.28;5032963;28;46558;-77
2023/05/19 11:57:13;;;;;;;;;9.75;9.75;;;;;18.73;40.40;101479.72;5033444;28;45911;-77
2023/05/19 11:59:51;;;;;;;;;8.00;7.75;;;;;18.68;39.71;101460.72;5032985;28;45820;-76
2023/05/19 12:02:20;;;;;;;;;9.00;8.00;;;;;18.80;40.08;101464.91;5033301;28;45673;-77
2023/05/19 12:04:48;;;;;;;;;9.50;9.00;;;;;18.77;39.66;101443.94;5050290;28;46458;-76
2023/05/19 12:07:18;;;;;;;;;10.25;10.25;;;;;18.69;39.52;101436.69;5056696;28;45702;-77
2023/05/19 12:09:44;;;;;;;;;9.75;8.00;;;;;18.91;39.50;101467.41;5056827;28;45669;-78
2023/05/19 12:12:12;;;;;;;;;11.75;10.50;;;;;18.82;39.43;101455.00;5055829;28;45773;-76
2023/05/19 12:14:39;;;;;;;;;11.00;10.25;;;;;18.84;40.01;101456.50;5054543;28;47063;-76
2023/05/19 12:17:16;;;;;;;;;11.00;9.00;;;;;18.89;39.86;101449.97;5055096;28;45526;-76
2023/05/19 12:19:46;;;;;;;;;15.25;11.75;;;;;18.92;39.92;101454.97;5056317;28;45737;-77
2023/05/19 12:22:12;;;;;;;;;10.25;9.75;;;;;18.91;39.67;101456.78;5054959;28;47400;-75
2023/05/19 12:24:39;;;;;;;;;10.50;8.50;;;;;18.89;39.39;101456.09;5054843;28;45705;-76
2023/05/19 12:27:25;;;;;;;;;12.25;11.00;;;;;18.89;39.56;101437.53;5054739;28;45639;-77
2023/05/19 12:29:52;;;;;;;;;10.00;9.00;;;;;18.83;39.92;101428.31;5054199;28;46090;-76
2023/05/19 12:32:17;;;;;;;;;9.25;9.25;;;;;18.86;39.59;101428.00;5054186;28;46700;-77
2023/05/19 12:34:45;;;;;;;;;9.00;9.00;;;;;18.81;39.67;101418.78;5053899;28;47187;-76
2023/05/19 12:37:11;;;;;;;;;10.00;6.75;;;;;19.01;39.45;101454.09;5054218;28;46034;-76
2023/05/19 12:39:37;;;;;;;;;9.75;9.25;;;;;18.82;39.73;101431.94;5052867;28;46009;-77
2023/05/19 12:42:06;;;;;;;;;11.00;9.00;;;;;19.02;38.68;101453.13;5054113;28;46473;-76
2023/05/19 12:44:39;;;;;;;;;10.00;9.00;;;;;19.03;38.87;101452.16;5054171;28;45917;-76
2023/05/19 12:47:05;;;;;;;;;9.75;8.75;;;;;19.07;38.84;101438.44;5053971;28;45690;-78